createdAt,value
2022-08-08T00:01:07.995Z,0.50
2022-08-08T00:03:55.956Z,0.43
2022-08-08T00:06:49.891Z,0.50
2022-08-08T00:09:17.557Z,0.40
2022-08-08T00:11:47.184Z,0.35
2022-08-08T00:14:54.869Z,0.30
2022-08-08T00:18:02.225Z,0.30
2022-08-08T00:20:33.494Z,0.45
2022-08-08T00:23:06.319Z,0.30
2022-08-08T00:25:46.796Z,0.32
2022-08-08T00:28:34.237Z,0.50
2022-08-08T00:32:28.388Z,0.30
2022-08-08T00:34:20.129Z,0.35
2022-08-08T00:36:56.089Z,0.40
2022-08-08T00:41:12.291Z,0.38
2022-08-08T00:43:19.381Z,0.43
2022-08-08T00:46:16.239Z,0.43
2022-08-08T00:48:59.413Z,0.43
2022-08-08T00:51:38.946Z,0.30
2022-08-08T00:54:25.201Z,0.30
2022-08-08T00:56:59.619Z,0.30
2022-08-08T00:59:55.483Z,0.40
2022-08-08T01:03:58.918Z,0.50
2022-08-08T01:05:59.732Z,0.30
2022-08-08T01:08:33.715Z,0.30
2022-08-08T01:11:19.983Z,0.50
2022-08-08T01:14:53.609Z,0.40
2022-08-08T01:17:51.641Z,0.40
2022-08-08T01:20:24.198Z,0.40
2022-08-08T01:23:03.189Z,0.45
2022-08-08T01:26:02.214Z,0.30
2022-08-08T01:28:48.632Z,0.30
2022-08-08T01:32:13.831Z,0.30
2022-08-08T01:34:29.053Z,0.30
2022-08-08T01:37:17.865Z,0.40
2022-08-08T01:40:14.646Z,0.40
2022-08-08T01:42:53.472Z,0.40
2022-08-08T01:45:40.080Z,0.40
2022-08-08T01:48:30.943Z,0.30
2022-08-08T01:51:30.039Z,0.50
2022-08-08T01:55:25.724Z,0.32
2022-08-08T01:57:21.944Z,0.40
2022-08-08T02:00:03.522Z,0.30
2022-08-08T02:02:57.980Z,0.40
2022-08-08T02:05:33.886Z,0.40
2022-08-08T02:08:22.797Z,0.40
2022-08-08T02:10:54.447Z,0.40
2022-08-08T02:13:54.546Z,0.52
2022-08-08T02:16:28.329Z,0.47
2022-08-08T02:19:26.695Z,0.45
2022-08-08T02:22:33.897Z,0.50
2022-08-08T02:25:20.962Z,0.40
2022-08-08T02:28:05.859Z,0.50
2022-08-08T02:30:35.770Z,0.30
2022-08-08T02:33:03.151Z,0.50
2022-08-08T02:36:04.322Z,0.30
2022-08-08T02:38:44.841Z,0.30
2022-08-08T02:42:04.423Z,0.30
2022-08-08T02:44:38.105Z,0.40
2022-08-08T02:47:16.035Z,0.50
2022-08-08T02:50:25.966Z,0.30
2022-08-08T02:52:53.221Z,0.52
2022-08-08T02:55:23.407Z,0.40
2022-08-08T02:57:53.120Z,0.60
2022-08-08T03:00:30.964Z,0.60
2022-08-08T03:03:46.351Z,0.40
2022-08-08T03:06:34.424Z,0.45
2022-08-08T03:09:06.883Z,0.35
2022-08-08T03:12:02.396Z,0.40
2022-08-08T03:15:58.221Z,0.40
2022-08-08T03:17:39.490Z,0.32
2022-08-08T03:20:11.118Z,0.40
2022-08-08T03:22:57.140Z,0.40
2022-08-08T03:25:35.520Z,0.68
2022-08-08T03:28:07.643Z,0.88
2022-08-08T03:30:36.791Z,0.47
2022-08-08T03:33:56.354Z,0.50
2022-08-08T03:36:15.874Z,0.47
2022-08-08T03:38:54.930Z,0.50
2022-08-08T03:42:28.643Z,0.70
2022-08-08T03:44:29.755Z,0.95
2022-08-08T03:46:57.241Z,0.40
2022-08-08T03:49:57.465Z,0.68
2022-08-08T03:52:14.913Z,0.45
2022-08-08T03:55:02.409Z,0.43
2022-08-08T03:58:31.853Z,0.50
2022-08-08T04:00:26.015Z,0.50
2022-08-08T04:03:02.312Z,0.57
2022-08-08T04:05:33.164Z,0.45
2022-08-08T04:08:08.105Z,0.40
2022-08-08T04:10:36.288Z,0.43
2022-08-08T04:13:17.259Z,0.60
2022-08-08T04:16:03.925Z,0.40
2022-08-08T04:18:44.992Z,0.30
2022-08-08T04:21:19.829Z,0.50
2022-08-08T04:24:12.270Z,0.30
2022-08-08T04:26:45.311Z,0.50
2022-08-08T04:29:25.297Z,0.40
2022-08-08T04:31:58.700Z,0.40
2022-08-08T04:34:31.788Z,0.50
2022-08-08T04:37:04.292Z,0.50
2022-08-08T04:40:03.783Z,0.40
2022-08-08T04:42:20.801Z,0.60
2022-08-08T04:44:51.722Z,0.52
2022-08-08T04:47:20.025Z,0.40
2022-08-08T04:50:01.155Z,0.40
2022-08-08T04:52:35.482Z,0.60
2022-08-08T04:55:08.728Z,0.50
2022-08-08T04:57:36.305Z,0.52
2022-08-08T05:00:08.006Z,0.60
2022-08-08T05:02:38.021Z,0.38
2022-08-08T05:05:19.907Z,0.47
2022-08-08T05:07:48.415Z,0.60
2022-08-08T05:10:17.556Z,0.60
2022-08-08T05:13:00.327Z,0.52
2022-08-08T05:16:36.384Z,0.60
2022-08-08T05:18:18.532Z,0.38
2022-08-08T05:20:50.539Z,0.32
2022-08-08T05:23:20.460Z,0.50
2022-08-08T05:25:49.652Z,0.65
2022-08-08T05:28:27.962Z,0.40
2022-08-08T05:31:19.383Z,0.30
2022-08-08T05:33:52.366Z,0.40
2022-08-08T05:36:28.219Z,0.50
2022-08-08T05:38:59.530Z,0.50
2022-08-08T05:41:27.993Z,0.45
2022-08-08T05:44:31.185Z,0.52
2022-08-08T05:47:02.881Z,0.47
2022-08-08T05:49:31.801Z,0.52
2022-08-08T05:51:58.995Z,0.38
2022-08-08T05:54:50.065Z,0.30
2022-08-08T05:57:57.720Z,0.45
2022-08-08T06:00:22.482Z,0.40
2022-08-08T06:03:13.071Z,0.60
2022-08-08T06:05:52.514Z,0.40
2022-08-08T06:08:33.318Z,0.50
2022-08-08T06:11:06.213Z,0.40
2022-08-08T06:13:36.118Z,0.50
2022-08-08T06:16:14.258Z,0.40
2022-08-08T06:18:55.297Z,0.50
2022-08-08T06:21:32.387Z,0.40
2022-08-08T06:24:05.408Z,0.45
2022-08-08T06:26:52.262Z,0.55
2022-08-08T06:30:00.470Z,0.50
2022-08-08T06:32:40.688Z,0.40
2022-08-08T06:36:04.217Z,0.30
2022-08-08T06:38:11.741Z,0.40
2022-08-08T06:40:48.797Z,0.68
2022-08-08T06:43:28.663Z,0.50
2022-08-08T06:46:04.982Z,0.50
2022-08-08T06:48:38.227Z,0.40
2022-08-08T06:51:08.533Z,0.40
2022-08-08T06:53:39.365Z,0.60
2022-08-08T06:56:09.856Z,0.50
2022-08-08T06:58:39.836Z,0.47
2022-08-08T07:02:18.199Z,0.40
2022-08-08T07:04:38.020Z,0.65
2022-08-08T07:07:00.847Z,0.40
2022-08-08T07:09:45.786Z,0.50
2022-08-08T07:12:52.478Z,0.50
2022-08-08T07:16:05.211Z,0.40
2022-08-08T07:18:36.097Z,0.50
2022-08-08T07:21:18.484Z,0.30
2022-08-08T07:24:02.958Z,0.50
2022-08-08T07:26:38.929Z,0.47
2022-08-08T07:29:11.514Z,0.60
2022-08-08T07:31:49.094Z,0.35
2022-08-08T07:34:26.968Z,0.40
2022-08-08T07:37:11.645Z,0.43
2022-08-08T07:39:45.781Z,0.40
2022-08-08T07:42:33.430Z,0.40
2022-08-08T07:45:04.670Z,0.40
2022-08-08T07:47:39.261Z,0.70
2022-08-08T07:50:09.972Z,0.38
2022-08-08T07:52:43.749Z,0.60
2022-08-08T07:55:36.644Z,0.43
2022-08-08T07:58:23.705Z,0.40
2022-08-08T08:00:52.958Z,0.35
2022-08-08T08:03:43.357Z,0.50
2022-08-08T08:06:14.761Z,0.43
2022-08-08T08:08:56.827Z,0.70
2022-08-08T08:11:38.157Z,0.70
2022-08-08T08:14:24.755Z,0.30
2022-08-08T08:16:53.238Z,0.30
2022-08-08T08:19:27.023Z,0.60
2022-08-08T08:22:12.501Z,0.60
2022-08-08T08:24:46.972Z,0.95
2022-08-08T08:27:19.929Z,0.75
2022-08-08T08:29:50.935Z,0.65
2022-08-08T08:32:32.017Z,0.50
2022-08-08T08:35:07.030Z,0.50
2022-08-08T08:38:05.500Z,0.68
2022-08-08T08:40:25.199Z,0.80
2022-08-08T08:42:54.259Z,0.40
2022-08-08T08:45:23.363Z,0.40
2022-08-08T08:48:01.011Z,0.50
2022-08-08T08:50:35.179Z,0.75
2022-08-08T08:53:54.462Z,0.52
2022-08-08T08:56:06.962Z,0.32
2022-08-08T08:58:46.783Z,0.50
2022-08-08T09:01:23.847Z,0.45
2022-08-08T09:03:55.735Z,0.45
2022-08-08T09:06:34.204Z,0.40
2022-08-08T09:09:07.496Z,0.30
2022-08-08T09:12:02.314Z,0.50
2022-08-08T09:14:42.318Z,0.30
2022-08-08T09:17:18.019Z,0.43
2022-08-08T09:21:56.669Z,0.80
2022-08-08T09:22:35.765Z,0.50
2022-08-08T09:25:04.862Z,0.50
2022-08-08T09:27:55.547Z,0.40
2022-08-08T09:30:21.945Z,0.38
2022-08-08T09:33:13.208Z,0.40
2022-08-08T09:35:48.858Z,0.50
2022-08-08T09:38:53.645Z,0.30
2022-08-08T09:41:33.441Z,0.40
2022-08-08T09:44:15.346Z,0.30
2022-08-08T09:46:57.601Z,0.30
2022-08-08T09:49:42.476Z,0.30
2022-08-08T09:52:57.062Z,0.50
2022-08-08T09:55:12.868Z,0.43
2022-08-08T09:57:55.412Z,0.47
2022-08-08T10:00:43.494Z,0.90
2022-08-08T10:03:20.145Z,0.50
2022-08-08T10:05:47.579Z,0.50
2022-08-08T10:08:17.075Z,0.50
2022-08-08T10:10:50.879Z,0.40
2022-08-08T10:13:35.542Z,0.60
2022-08-08T10:16:04.124Z,0.30
2022-08-08T10:18:34.638Z,0.30
2022-08-08T10:21:25.121Z,0.35
2022-08-08T10:24:02.727Z,0.22
2022-08-08T10:26:59.493Z,0.45
2022-08-08T10:29:43.964Z,0.50
2022-08-08T10:32:50.830Z,0.57
2022-08-08T10:36:07.419Z,0.50
2022-08-08T10:38:09.236Z,0.43
2022-08-08T10:40:42.630Z,0.30
2022-08-08T10:43:10.265Z,0.82
2022-08-08T10:45:56.031Z,0.40
2022-08-08T10:48:58.906Z,0.40
2022-08-08T10:51:47.554Z,0.57
2022-08-08T10:54:25.066Z,0.40
2022-08-08T10:57:04.218Z,0.55
2022-08-08T10:59:39.561Z,0.50
2022-08-08T11:02:09.054Z,0.50
2022-08-08T11:04:53.693Z,0.38
2022-08-08T11:08:31.361Z,0.35
2022-08-08T11:10:28.775Z,0.28
2022-08-08T11:13:28.717Z,0.50
2022-08-08T11:15:58.996Z,0.20
2022-08-08T11:18:30.371Z,0.35
2022-08-08T11:21:09.153Z,0.35
2022-08-08T11:23:41.840Z,0.30
2022-08-08T11:26:19.182Z,0.40
2022-08-08T11:28:50.107Z,0.30
2022-08-08T11:31:20.899Z,0.30
2022-08-08T11:34:03.120Z,0.50
2022-08-08T11:36:36.472Z,0.28
2022-08-08T11:39:06.163Z,0.40
2022-08-08T11:41:40.310Z,0.47
2022-08-08T11:44:10.869Z,0.45
2022-08-08T11:46:40.088Z,0.30
2022-08-08T11:49:14.747Z,0.70
2022-08-08T11:51:50.629Z,0.50
2022-08-08T11:54:32.174Z,0.50
2022-08-08T11:57:14.469Z,1.83
2022-08-08T12:00:01.204Z,1.50
2022-08-08T12:02:51.899Z,0.47
2022-08-08T12:05:22.623Z,0.60
2022-08-08T12:07:58.953Z,0.52
2022-08-08T12:10:27.981Z,0.50
2022-08-08T12:13:04.581Z,0.20
2022-08-08T12:15:43.053Z,0.28
2022-08-08T12:18:24.573Z,0.30
2022-08-08T12:20:55.077Z,0.40
2022-08-08T12:23:42.890Z,0.30
2022-08-08T12:26:28.148Z,0.40
2022-08-08T12:29:25.926Z,0.20
2022-08-08T12:32:09.580Z,0.40
2022-08-08T12:35:17.496Z,0.40
2022-08-08T12:38:01.039Z,0.15
2022-08-08T12:40:54.253Z,0.30
2022-08-08T12:43:47.600Z,0.28
2022-08-08T12:46:26.482Z,0.25
2022-08-08T12:51:58.691Z,0.20
2022-08-08T12:54:37.023Z,0.30
2022-08-08T12:57:20.940Z,0.20
2022-08-08T13:00:06.267Z,0.32
2022-08-08T13:02:51.238Z,0.20
2022-08-08T13:05:26.791Z,0.25
2022-08-08T13:08:16.140Z,0.30
2022-08-08T13:10:56.417Z,0.43
2022-08-08T13:13:37.261Z,0.30
2022-08-08T13:16:25.743Z,0.38
2022-08-08T13:19:05.582Z,0.25
2022-08-08T13:24:40.714Z,0.30
2022-08-08T13:27:15.008Z,0.43
2022-08-08T13:29:53.119Z,0.38
2022-08-08T13:32:23.874Z,0.25
2022-08-08T13:34:55.555Z,0.30
2022-08-08T13:37:28.138Z,0.30
2022-08-08T13:40:17.795Z,0.30
2022-08-08T13:42:53.779Z,0.35
2022-08-08T13:45:23.918Z,0.22
2022-08-08T13:47:58.464Z,0.60
2022-08-08T13:50:36.056Z,0.28
2022-08-08T13:53:24.737Z,0.22
2022-08-08T13:56:05.784Z,0.25
2022-08-08T13:58:34.667Z,0.22
2022-08-08T14:01:18.486Z,0.30
2022-08-08T14:03:54.979Z,0.30
2022-08-08T14:06:33.680Z,0.28
2022-08-08T14:09:25.193Z,0.30
2022-08-08T14:11:49.003Z,0.20
2022-08-08T14:14:20.908Z,0.30
2022-08-08T14:16:55.544Z,0.20
2022-08-08T14:19:56.960Z,0.22
2022-08-08T14:22:20.650Z,0.40
2022-08-08T14:24:48.982Z,0.20
2022-08-08T14:27:27.057Z,0.20
2022-08-08T14:29:57.363Z,0.40
2022-08-08T14:32:30.079Z,0.47
2022-08-08T14:34:59.377Z,0.20
2022-08-08T14:37:43.178Z,0.30
2022-08-08T14:40:20.619Z,0.30
2022-08-08T14:42:56.908Z,0.98
2022-08-08T14:45:33.336Z,0.38
2022-08-08T14:48:16.354Z,0.35
2022-08-08T14:50:47.145Z,0.40
2022-08-08T14:53:15.318Z,0.20
2022-08-08T14:55:43.255Z,0.30
2022-08-08T14:58:16.430Z,0.47
2022-08-08T15:00:47.960Z,0.40
2022-08-08T15:03:17.414Z,0.20
2022-08-08T15:05:53.300Z,0.47
2022-08-08T15:08:34.274Z,0.20
2022-08-08T15:11:06.569Z,0.20
2022-08-08T15:13:40.019Z,0.28
2022-08-08T15:16:12.087Z,0.22
2022-08-08T15:18:44.279Z,0.20
2022-08-08T15:21:18.945Z,0.20
2022-08-08T15:23:51.040Z,0.30
2022-08-08T15:26:21.221Z,0.25
2022-08-08T15:28:54.168Z,0.30
2022-08-08T15:31:29.540Z,0.40
2022-08-08T15:34:29.312Z,0.40
2022-08-08T15:36:58.402Z,0.20
2022-08-08T15:39:28.878Z,0.30
2022-08-08T15:41:59.315Z,0.40
2022-08-08T15:44:27.151Z,0.15
2022-08-08T15:46:54.718Z,0.20
2022-08-08T15:49:24.722Z,0.38
2022-08-08T15:51:57.069Z,0.28
2022-08-08T15:54:38.157Z,0.20
2022-08-08T15:57:08.860Z,0.38
2022-08-08T16:00:05.392Z,0.43
2022-08-08T16:02:30.880Z,0.20
2022-08-08T16:04:59.100Z,0.40
2022-08-08T16:07:39.262Z,0.30
2022-08-08T16:13:15.357Z,0.20
2022-08-08T16:13:27.980Z,0.30
2022-08-08T16:15:57.639Z,0.20
2022-08-08T16:18:32.360Z,0.35
2022-08-08T16:21:01.017Z,0.30
2022-08-08T16:23:31.766Z,0.30
2022-08-08T16:26:04.423Z,0.30
2022-08-08T16:28:35.086Z,0.20
2022-08-08T16:31:06.459Z,0.20
2022-08-08T16:33:38.182Z,0.25
2022-08-08T16:36:08.930Z,0.25
2022-08-08T16:38:40.529Z,0.30
2022-08-08T16:41:18.472Z,0.30
2022-08-08T16:43:50.712Z,0.30
2022-08-08T16:46:36.445Z,24.75
2022-08-08T16:49:07.756Z,20.38
2022-08-08T16:55:05.572Z,13.30
2022-08-08T16:55:18.389Z,5.00
2022-08-08T16:57:27.755Z,4.00
2022-08-08T17:00:06.212Z,2.30
2022-08-08T17:02:44.344Z,1.10
2022-08-08T17:05:13.682Z,1.75
2022-08-08T17:07:41.895Z,1.48
2022-08-08T17:10:11.705Z,3.13
2022-08-08T17:12:52.526Z,1.45
2022-08-08T17:15:23.090Z,1.58
2022-08-08T17:18:03.800Z,0.77
2022-08-08T17:20:32.528Z,1.35
2022-08-08T17:23:18.308Z,0.98
2022-08-08T17:25:53.634Z,1.27
2022-08-08T17:28:34.772Z,1.08
2022-08-08T17:31:39.165Z,0.75
2022-08-08T17:34:48.704Z,0.82
2022-08-08T17:36:47.990Z,0.50
2022-08-08T17:40:03.533Z,0.70
2022-08-08T17:42:13.771Z,0.65
2022-08-08T17:44:44.412Z,0.45
2022-08-08T17:47:16.288Z,0.47
2022-08-08T17:49:52.632Z,0.30
2022-08-08T17:52:23.207Z,0.32
2022-08-08T17:54:55.914Z,0.50
2022-08-08T17:57:23.817Z,0.45
2022-08-08T17:59:51.713Z,0.50
2022-08-08T18:02:29.281Z,0.40
2022-08-08T18:04:58.709Z,0.50
2022-08-08T18:08:11.407Z,0.55
2022-08-08T18:10:15.880Z,0.40
2022-08-08T18:12:46.097Z,0.47
2022-08-08T18:15:14.961Z,0.40
2022-08-08T18:18:09.357Z,0.50
2022-08-08T18:20:44.384Z,0.50
2022-08-08T18:23:17.887Z,0.40
2022-08-08T18:25:47.496Z,0.68
2022-08-08T18:28:15.355Z,0.30
2022-08-08T18:30:50.904Z,0.30
2022-08-08T18:33:36.611Z,0.28
2022-08-08T18:36:10.252Z,0.30
2022-08-08T18:38:50.501Z,0.35
2022-08-08T18:41:19.208Z,0.40
2022-08-08T18:44:06.548Z,0.20
2022-08-08T18:46:55.194Z,0.20
2022-08-08T18:49:32.403Z,0.40
2022-08-08T18:52:08.707Z,0.30
2022-08-08T18:54:46.078Z,0.30
2022-08-08T18:57:27.678Z,0.20
2022-08-08T19:00:01.285Z,0.32
2022-08-08T19:02:29.887Z,0.35
2022-08-08T19:04:57.448Z,0.47
2022-08-08T19:07:29.620Z,0.30
2022-08-08T19:10:15.418Z,0.30
2022-08-08T19:12:44.701Z,0.35
2022-08-08T19:15:21.615Z,0.40
2022-08-08T19:18:32.432Z,0.47
2022-08-08T19:20:39.300Z,0.40
2022-08-08T19:23:08.576Z,0.70
2022-08-08T19:26:26.866Z,0.40
2022-08-08T19:28:24.370Z,0.43
2022-08-08T19:31:03.762Z,0.30
2022-08-08T19:33:52.300Z,0.28
2022-08-08T19:36:27.563Z,0.30
2022-08-08T19:38:55.787Z,0.32
2022-08-08T19:41:27.036Z,0.32
2022-08-08T19:44:04.092Z,0.40
2022-08-08T19:46:40.167Z,0.40
2022-08-08T19:49:07.733Z,0.20
2022-08-08T19:51:43.181Z,0.30
2022-08-08T19:54:12.430Z,0.22
2022-08-08T19:56:41.548Z,0.30
2022-08-08T19:59:15.771Z,0.30
2022-08-08T20:02:01.421Z,0.45
2022-08-08T20:04:30.958Z,0.57
2022-08-08T20:06:59.289Z,0.38
2022-08-08T20:09:32.668Z,0.38
2022-08-08T20:12:11.724Z,0.40
2022-08-08T20:14:42.095Z,0.40
2022-08-08T20:17:09.590Z,0.52
2022-08-08T20:19:43.420Z,0.55
2022-08-08T20:22:21.052Z,0.60
2022-08-08T20:24:58.061Z,0.50
2022-08-08T20:27:32.962Z,0.70
2022-08-08T20:30:52.738Z,0.80
2022-08-08T20:33:00.735Z,0.77
2022-08-08T20:35:57.149Z,1.42
2022-08-08T20:38:16.030Z,0.60
2022-08-08T20:40:47.526Z,0.85
2022-08-08T20:43:22.962Z,0.80
2022-08-08T20:46:05.249Z,0.80
2022-08-08T20:48:36.832Z,0.50
2022-08-08T20:51:05.555Z,1.42
2022-08-08T20:54:00.622Z,0.77
2022-08-08T20:56:20.467Z,0.50
2022-08-08T20:59:05.732Z,0.70
2022-08-08T21:02:06.697Z,0.80
2022-08-08T21:04:21.292Z,0.40
2022-08-08T21:06:51.975Z,0.47
2022-08-08T21:09:20.661Z,0.47
2022-08-08T21:11:50.440Z,0.40
2022-08-08T21:14:30.444Z,0.43
2022-08-08T21:17:01.436Z,0.40
2022-08-08T21:19:34.041Z,0.40
2022-08-08T21:22:12.672Z,0.40
2022-08-08T21:24:52.166Z,0.40
2022-08-08T21:27:38.775Z,0.40
2022-08-08T21:30:16.422Z,0.43
2022-08-08T21:32:51.547Z,0.32
2022-08-08T21:36:13.726Z,0.32
2022-08-08T21:38:08.510Z,0.40
2022-08-08T21:40:55.101Z,0.35
2022-08-08T21:43:23.979Z,0.25
2022-08-08T21:48:01.100Z,0.32
2022-08-08T21:48:41.793Z,0.40
2022-08-08T21:51:13.289Z,0.50
2022-08-08T21:54:22.849Z,0.43
2022-08-08T21:56:36.072Z,0.65
2022-08-08T21:59:10.055Z,0.40
2022-08-08T22:01:40.692Z,0.30
2022-08-08T22:04:10.606Z,0.40
2022-08-08T22:06:40.373Z,0.55
2022-08-08T22:09:09.610Z,0.40
2022-08-08T22:11:59.270Z,0.40
2022-08-08T22:14:26.776Z,0.43
2022-08-08T22:16:56.634Z,0.50
2022-08-08T22:19:30.446Z,0.38
2022-08-08T22:22:19.127Z,0.38
2022-08-08T22:24:46.420Z,0.40
2022-08-08T22:27:15.259Z,0.30
2022-08-08T22:29:59.100Z,0.70
2022-08-08T22:32:30.037Z,0.50
2022-08-08T22:34:58.616Z,0.38
2022-08-08T22:37:49.658Z,0.38
2022-08-08T22:40:16.857Z,0.60
2022-08-08T22:42:47.425Z,0.50
2022-08-08T22:45:15.418Z,0.47
2022-08-08T22:47:48.840Z,0.60
2022-08-08T22:50:27.062Z,0.50
2022-08-08T22:54:19.641Z,0.63
2022-08-08T22:55:59.389Z,0.40
2022-08-08T22:58:31.251Z,0.40
2022-08-08T23:01:01.147Z,0.40
2022-08-08T23:03:53.162Z,0.60
2022-08-08T23:06:17.868Z,0.50
2022-08-08T23:08:55.791Z,0.50
2022-08-08T23:12:17.209Z,0.40
2022-08-08T23:14:15.272Z,0.40
2022-08-08T23:16:43.542Z,0.40
2022-08-08T23:19:12.524Z,0.32
2022-08-08T23:21:42.611Z,0.35
2022-08-08T23:24:12.565Z,0.47
2022-08-08T23:26:53.404Z,0.60
2022-08-08T23:29:31.220Z,0.47
2022-08-08T23:31:58.743Z,0.50
2022-08-08T23:34:26.080Z,0.60
2022-08-08T23:36:57.810Z,0.40
2022-08-08T23:39:32.069Z,0.50
2022-08-08T23:42:09.319Z,0.50
2022-08-08T23:44:38.602Z,0.60
2022-08-08T23:49:05.982Z,0.57
2022-08-08T23:50:01.041Z,0.38
2022-08-08T23:52:31.376Z,0.50
2022-08-08T23:55:00.235Z,0.40
2022-08-08T23:57:39.294Z,0.60
